createdAt,value
2018-01-26T00:00:17.730Z,11.60
2018-01-26T00:02:46.749Z,11.60
2018-01-26T00:05:15.002Z,11.60
2018-01-26T00:07:44.048Z,11.60
2018-01-26T00:10:12.298Z,11.60
2018-01-26T00:12:40.550Z,11.50
2018-01-26T00:15:08.877Z,11.60
2018-01-26T00:17:37.134Z,11.50
2018-01-26T00:20:05.382Z,11.60
2018-01-26T00:22:33.665Z,11.60
2018-01-26T00:25:01.919Z,11.60
2018-01-26T00:27:30.937Z,11.60
2018-01-26T00:29:59.210Z,11.60
2018-01-26T00:32:27.458Z,11.60
2018-01-26T00:34:55.962Z,11.60
2018-01-26T00:37:25.350Z,11.60
2018-01-26T00:39:53.591Z,11.60
2018-01-26T00:42:21.850Z,11.60
2018-01-26T00:44:50.126Z,11.60
2018-01-26T00:47:18.370Z,11.60
2018-01-26T00:49:47.382Z,11.40
2018-01-26T00:52:15.653Z,11.40
2018-01-26T00:54:43.909Z,11.30
2018-01-26T00:57:12.925Z,11.30
2018-01-26T00:59:41.633Z,11.30
2018-01-26T01:02:09.893Z,11.30
2018-01-26T01:04:38.133Z,11.30
2018-01-26T01:07:06.401Z,11.40
2018-01-26T01:09:34.642Z,11.40
2018-01-26T01:12:02.893Z,11.50
2018-01-26T01:14:31.153Z,11.40
2018-01-26T01:17:00.166Z,11.50
2018-01-26T01:19:28.413Z,11.50
2018-01-26T01:21:56.730Z,11.50
2018-01-26T01:24:24.981Z,11.50
2018-01-26T01:26:53.229Z,11.40
2018-01-26T01:29:21.489Z,11.40
2018-01-26T01:31:49.737Z,11.40
2018-01-26T01:34:17.985Z,11.40
2018-01-26T01:36:46.681Z,11.40
2018-01-26T01:39:15.694Z,11.40
2018-01-26T01:41:43.933Z,11.40
2018-01-26T01:44:13.378Z,11.40
2018-01-26T01:46:41.621Z,11.40
2018-01-26T01:49:16.640Z,11.40
2018-01-26T01:51:44.898Z,11.40
2018-01-26T01:54:13.141Z,11.40
2018-01-26T01:56:41.436Z,11.40
2018-01-26T01:59:09.676Z,11.50
2018-01-26T02:01:37.918Z,11.50
2018-01-26T02:04:07.176Z,11.60
2018-01-26T02:06:35.419Z,11.60
2018-01-26T02:09:04.425Z,11.60
2018-01-26T02:11:32.693Z,11.60
2018-01-26T02:14:02.156Z,11.60
2018-01-26T02:16:30.393Z,11.50
2018-01-26T02:18:58.658Z,11.60
2018-01-26T02:21:26.906Z,11.50
2018-01-26T02:23:55.145Z,11.60
2018-01-26T02:26:23.774Z,11.60
2018-01-26T02:28:52.789Z,11.50
2018-01-26T02:31:21.045Z,11.50
2018-01-26T02:33:50.078Z,11.60
2018-01-26T02:36:18.337Z,11.60
2018-01-26T02:38:46.913Z,11.50
2018-01-26T02:41:18.025Z,11.40
2018-01-26T02:43:46.281Z,11.40
2018-01-26T02:46:14.537Z,11.40
2018-01-26T02:48:43.224Z,11.40
2018-01-26T02:51:11.474Z,11.40
2018-01-26T02:53:39.721Z,11.40
2018-01-26T02:56:08.762Z,11.60
2018-01-26T02:58:37.004Z,11.50
2018-01-26T03:01:06.009Z,12.00
2018-01-26T03:03:34.274Z,12.00
2018-01-26T03:06:02.517Z,12.10
2018-01-26T03:08:30.793Z,12.00
2018-01-26T03:10:59.250Z,12.10
2018-01-26T03:13:27.493Z,12.10
2018-01-26T03:15:55.750Z,11.90
2018-01-26T03:18:24.791Z,11.90
2018-01-26T03:20:53.029Z,11.90
2018-01-26T03:23:22.037Z,11.90
2018-01-26T03:25:50.752Z,11.90
2018-01-26T03:28:19.000Z,12.00
2018-01-26T03:30:47.246Z,11.90
2018-01-26T03:33:15.661Z,11.80
2018-01-26T03:35:43.909Z,11.90
2018-01-26T03:38:12.918Z,11.70
2018-01-26T03:40:42.233Z,11.70
2018-01-26T03:43:10.476Z,11.70
2018-01-26T03:45:38.950Z,11.70
2018-01-26T03:48:07.214Z,11.70
2018-01-26T03:50:35.457Z,11.70
2018-01-26T03:53:03.706Z,11.70
2018-01-26T03:55:33.145Z,11.70
2018-01-26T03:58:01.385Z,11.70
2018-01-26T04:00:30.393Z,11.70
2018-01-26T04:02:58.670Z,11.70
2018-01-26T04:05:27.016Z,11.60
2018-01-26T04:07:56.039Z,11.60
2018-01-26T04:10:24.310Z,11.60
2018-01-26T04:12:53.326Z,11.40
2018-01-26T04:15:21.570Z,11.40
2018-01-26T04:17:50.098Z,11.50
2018-01-26T04:20:18.345Z,11.50
2018-01-26T04:22:46.586Z,11.40
2018-01-26T04:25:14.853Z,11.40
2018-01-26T04:27:43.098Z,11.50
2018-01-26T04:30:11.341Z,11.70
2018-01-26T04:32:40.373Z,11.80
2018-01-26T04:35:08.618Z,11.70
2018-01-26T04:37:36.862Z,11.70
2018-01-26T04:40:05.510Z,11.70
2018-01-26T04:42:33.968Z,11.70
2018-01-26T04:45:02.214Z,11.60
2018-01-26T04:47:31.249Z,11.80
2018-01-26T04:49:59.485Z,11.80
2018-01-26T04:52:27.725Z,11.90
2018-01-26T04:54:55.994Z,11.90
2018-01-26T04:57:24.241Z,11.90
2018-01-26T04:59:52.490Z,11.90
2018-01-26T05:02:21.656Z,11.80
2018-01-26T05:04:49.890Z,11.80
2018-01-26T05:07:18.144Z,11.80
2018-01-26T05:09:46.407Z,11.90
2018-01-26T05:12:14.655Z,11.90
2018-01-26T05:14:42.897Z,11.90
2018-01-26T05:17:11.177Z,11.80
2018-01-26T05:19:39.425Z,11.80
2018-01-26T05:22:08.587Z,11.70
2018-01-26T05:24:37.037Z,11.70
2018-01-26T05:27:05.282Z,11.60
2018-01-26T05:29:34.305Z,11.60
2018-01-26T05:32:02.574Z,11.60
2018-01-26T05:34:30.822Z,11.60
2018-01-26T05:36:59.267Z,11.50
2018-01-26T05:39:27.513Z,11.50
2018-01-26T05:41:55.762Z,11.50
2018-01-26T05:44:24.248Z,11.50
2018-01-26T05:46:53.397Z,11.50
2018-01-26T05:49:21.651Z,11.50
2018-01-26T05:51:50.878Z,11.50
2018-01-26T05:54:19.153Z,11.50
2018-01-26T05:56:48.157Z,11.40
2018-01-26T05:59:16.420Z,11.50
2018-01-26T06:01:44.693Z,11.50
2018-01-26T06:04:12.933Z,11.60
2018-01-26T06:06:41.193Z,11.60
2018-01-26T06:09:10.701Z,11.60
2018-01-26T06:11:39.718Z,11.70
2018-01-26T06:14:07.970Z,11.60
2018-01-26T06:16:37.020Z,11.70
2018-01-26T06:19:05.246Z,11.70
2018-01-26T06:21:33.490Z,11.70
2018-01-26T06:24:01.758Z,11.60
2018-01-26T06:26:30.058Z,11.60
2018-01-26T06:28:58.302Z,11.60
2018-01-26T06:31:26.989Z,11.50
2018-01-26T06:33:55.218Z,11.40
2018-01-26T06:36:24.225Z,11.50
2018-01-26T06:38:52.539Z,11.40
2018-01-26T06:41:20.781Z,11.40
2018-01-26T06:43:49.021Z,11.40
2018-01-26T06:46:18.097Z,11.30
2018-01-26T06:48:46.337Z,11.30
2018-01-26T06:51:14.603Z,11.30
2018-01-26T06:53:43.830Z,11.30
2018-01-26T06:56:12.077Z,11.30
2018-01-26T06:58:40.390Z,11.30
2018-01-26T07:01:08.633Z,11.20
2018-01-26T07:03:36.886Z,11.10
2018-01-26T07:06:05.901Z,11.10
2018-01-26T07:08:34.178Z,11.10
2018-01-26T07:11:02.433Z,11.20
2018-01-26T07:13:31.449Z,11.20
2018-01-26T07:16:00.174Z,11.10
2018-01-26T07:18:28.413Z,11.10
2018-01-26T07:20:56.658Z,11.10
2018-01-26T07:23:24.933Z,11.10
2018-01-26T07:25:53.942Z,11.20
2018-01-26T07:28:22.189Z,11.20
2018-01-26T07:30:50.457Z,11.20
2018-01-26T07:33:18.706Z,11.20
2018-01-26T07:35:46.946Z,11.20
2018-01-26T07:38:16.486Z,11.10
2018-01-26T07:40:44.726Z,11.10
2018-01-26T07:43:13.745Z,11.30
2018-01-26T07:45:42.018Z,11.20
2018-01-26T07:48:10.573Z,11.30
2018-01-26T07:50:39.593Z,11.30
2018-01-26T07:53:07.874Z,11.30
2018-01-26T07:55:36.117Z,11.20
2018-01-26T07:58:04.370Z,11.20
2018-01-26T08:00:33.126Z,11.20
2018-01-26T08:03:01.365Z,11.10
2018-01-26T08:05:30.386Z,11.00
2018-01-26T08:07:58.653Z,11.00
2018-01-26T08:10:26.914Z,11.00
2018-01-26T08:12:55.925Z,10.90
2018-01-26T08:15:24.197Z,10.90
2018-01-26T08:17:52.449Z,10.90
2018-01-26T08:20:20.690Z,11.00
2018-01-26T08:22:49.026Z,11.10
2018-01-26T08:25:17.270Z,11.10
2018-01-26T08:27:45.525Z,11.10
2018-01-26T08:30:13.806Z,11.10
2018-01-26T08:32:42.045Z,11.10
2018-01-26T08:35:10.288Z,11.10
2018-01-26T08:37:38.566Z,11.20
2018-01-26T08:40:06.805Z,11.10
2018-01-26T08:42:35.049Z,11.10
2018-01-26T08:45:03.381Z,11.10
2018-01-26T08:47:31.638Z,11.20
2018-01-26T08:50:00.078Z,11.20
2018-01-26T08:52:28.355Z,11.20
2018-01-26T08:54:56.602Z,11.30
2018-01-26T08:57:24.879Z,11.20
2018-01-26T08:59:53.641Z,11.30
2018-01-26T09:02:22.327Z,11.40
2018-01-26T09:04:50.707Z,11.40
2018-01-26T09:07:19.584Z,11.40
2018-01-26T09:09:47.809Z,11.40
2018-01-26T09:12:16.820Z,11.50
2018-01-26T09:14:45.240Z,11.50
2018-01-26T09:17:13.520Z,11.60
2018-01-26T09:19:41.721Z,11.60
2018-01-26T09:22:09.997Z,11.60
2018-01-26T09:24:38.272Z,11.60
2018-01-26T09:27:06.625Z,11.50
2018-01-26T09:29:35.237Z,11.50
2018-01-26T09:32:03.707Z,11.60
2018-01-26T09:34:32.077Z,11.70
2018-01-26T09:37:00.469Z,11.70
2018-01-26T09:39:28.912Z,11.70
2018-01-26T09:41:57.148Z,11.50
2018-01-26T09:44:25.646Z,11.50
2018-01-26T09:46:53.975Z,11.50
2018-01-26T09:49:22.592Z,11.50
2018-01-26T09:51:51.149Z,11.40
2018-01-26T09:54:19.694Z,11.40
2018-01-26T09:56:47.925Z,11.40
2018-01-26T09:59:16.289Z,11.60
2018-01-26T10:01:44.709Z,11.70
2018-01-26T10:04:14.205Z,11.80
2018-01-26T10:06:43.351Z,12.10
2018-01-26T10:09:11.593Z,12.10
2018-01-26T10:11:39.837Z,12.20
2018-01-26T10:14:08.165Z,12.50
2018-01-26T10:16:36.405Z,12.80
2018-01-26T10:19:05.418Z,12.90
2018-01-26T10:21:33.893Z,12.90
2018-01-26T10:24:02.142Z,12.90
2018-01-26T10:26:31.478Z,13.00
2018-01-26T10:28:59.749Z,13.00
2018-01-26T10:31:27.996Z,13.10
2018-01-26T10:33:57.175Z,13.30
2018-01-26T10:36:25.959Z,13.50
2018-01-26T10:38:55.682Z,13.50
2018-01-26T10:41:24.021Z,13.60
2018-01-26T10:43:52.302Z,13.80
2018-01-26T10:46:21.194Z,13.70
2018-01-26T10:48:49.597Z,13.70
2018-01-26T10:51:17.889Z,13.50
2018-01-26T10:53:46.395Z,13.40
2018-01-26T10:56:15.440Z,13.50
2018-01-26T10:58:43.890Z,13.50
2018-01-26T11:01:12.139Z,13.70
2018-01-26T11:03:41.300Z,13.70
2018-01-26T11:06:09.550Z,13.70
2018-01-26T11:08:37.797Z,13.60
2018-01-26T11:11:06.805Z,13.90
2018-01-26T11:13:35.090Z,13.90
2018-01-26T11:16:03.500Z,14.10
2018-01-26T11:18:31.810Z,14.10
2018-01-26T11:21:00.361Z,14.00
2018-01-26T11:23:28.916Z,13.90
2018-01-26T11:25:58.549Z,14.10
2018-01-26T11:28:27.427Z,14.40
2018-01-26T11:30:56.108Z,14.90
2018-01-26T11:33:24.830Z,15.00
2018-01-26T11:35:53.133Z,14.80
2018-01-26T11:38:22.154Z,14.60
2018-01-26T11:40:50.394Z,14.60
2018-01-26T11:43:19.489Z,14.80
2018-01-26T11:45:48.821Z,14.90
2018-01-26T11:48:18.329Z,14.50
2018-01-26T11:50:46.613Z,14.50
2018-01-26T11:53:15.135Z,14.10
2018-01-26T11:55:44.311Z,13.80
2018-01-26T11:58:12.585Z,13.50
2018-01-26T12:00:44.551Z,13.40
2018-01-26T12:03:12.797Z,13.30
2018-01-26T12:05:41.709Z,13.20
2018-01-26T12:08:09.934Z,13.20
2018-01-26T12:10:38.953Z,13.30
2018-01-26T12:13:08.010Z,13.30
2018-01-26T12:15:36.246Z,13.30
2018-01-26T12:18:04.581Z,13.40
2018-01-26T12:20:32.862Z,13.50
2018-01-26T12:23:01.869Z,14.40
2018-01-26T12:25:30.890Z,14.60
2018-01-26T12:27:59.226Z,14.50
2018-01-26T12:30:28.238Z,14.90
2018-01-26T12:32:57.246Z,14.60
2018-01-26T12:35:25.592Z,14.60
2018-01-26T12:37:53.898Z,14.40
2018-01-26T12:40:22.145Z,14.30
2018-01-26T12:42:50.414Z,14.20
2018-01-26T12:45:18.681Z,14.10
2018-01-26T12:47:47.051Z,14.00
2018-01-26T12:50:15.540Z,14.10
2018-01-26T12:52:43.977Z,14.10
2018-01-26T12:55:12.364Z,14.00
2018-01-26T12:57:41.124Z,13.80
2018-01-26T13:00:09.384Z,13.70
2018-01-26T13:02:37.626Z,13.70
2018-01-26T13:05:05.894Z,13.60
2018-01-26T13:07:34.145Z,13.50
2018-01-26T13:10:02.524Z,13.60
2018-01-26T13:12:30.907Z,13.60
2018-01-26T13:14:59.162Z,13.60
2018-01-26T13:17:27.405Z,13.50
2018-01-26T13:19:55.979Z,13.70
2018-01-26T13:22:24.209Z,13.60
2018-01-26T13:24:52.545Z,13.60
2018-01-26T13:27:20.814Z,13.40
2018-01-26T13:29:49.813Z,13.30
2018-01-26T13:32:18.061Z,13.30
2018-01-26T13:34:46.493Z,13.20
2018-01-26T13:37:14.719Z,13.20
2018-01-26T13:39:43.140Z,13.10
2018-01-26T13:42:11.608Z,13.00
2018-01-26T13:44:39.855Z,12.90
2018-01-26T13:47:08.945Z,12.90
2018-01-26T13:49:38.559Z,13.10
2018-01-26T13:52:06.798Z,13.10
2018-01-26T13:54:35.050Z,13.10
2018-01-26T13:57:03.477Z,13.20
2018-01-26T13:59:32.192Z,13.10
2018-01-26T14:02:00.435Z,12.90
2018-01-26T14:04:28.847Z,12.60
2018-01-26T14:06:58.049Z,12.50
2018-01-26T14:09:26.289Z,12.70
2018-01-26T14:11:54.566Z,12.80
2018-01-26T14:14:22.876Z,12.80
2018-01-26T14:16:52.194Z,12.70
2018-01-26T14:19:20.538Z,12.80
2018-01-26T14:21:48.945Z,12.60
2018-01-26T14:24:19.170Z,12.50
2018-01-26T14:26:47.578Z,12.50
2018-01-26T14:29:17.773Z,12.40
2018-01-26T14:31:46.039Z,12.40
2018-01-26T14:34:15.252Z,12.30
2018-01-26T14:36:43.518Z,12.20
2018-01-26T14:39:17.033Z,12.10
2018-01-26T14:41:46.785Z,12.20
2018-01-26T14:44:15.973Z,12.20
2018-01-26T14:46:44.242Z,12.20
2018-01-26T14:49:12.490Z,12.20
2018-01-26T14:51:40.861Z,12.20
2018-01-26T14:54:09.182Z,12.10
2018-01-26T14:56:37.410Z,12.20
2018-01-26T14:59:05.649Z,12.20
2018-01-26T15:01:34.270Z,12.20
2018-01-26T15:04:02.506Z,12.20
2018-01-26T15:06:30.750Z,12.10
2018-01-26T15:08:59.366Z,12.10
2018-01-26T15:11:27.633Z,12.10
2018-01-26T15:13:56.542Z,12.10
2018-01-26T15:16:25.005Z,12.00
2018-01-26T15:18:54.047Z,11.70
2018-01-26T15:21:22.269Z,11.70
2018-01-26T15:23:51.366Z,11.60
2018-01-26T15:26:20.386Z,11.70
2018-01-26T15:28:48.653Z,11.70
2018-01-26T15:31:17.721Z,11.70
2018-01-26T15:33:45.961Z,11.70
2018-01-26T15:36:14.238Z,11.70
2018-01-26T15:38:42.481Z,11.60
2018-01-26T15:41:10.949Z,11.60
2018-01-26T15:43:39.214Z,11.70
2018-01-26T15:46:08.658Z,11.80
2018-01-26T15:48:36.897Z,11.80
2018-01-26T15:51:05.909Z,11.70
2018-01-26T15:53:34.361Z,11.70
2018-01-26T15:56:03.379Z,11.60
2018-01-26T15:58:32.373Z,11.50
2018-01-26T16:01:01.641Z,11.50
2018-01-26T16:03:30.116Z,11.50
2018-01-26T16:05:58.354Z,11.50
2018-01-26T16:08:26.993Z,11.50
2018-01-26T16:10:56.989Z,11.60
2018-01-26T16:13:25.253Z,11.50
2018-01-26T16:16:03.415Z,11.50
2018-01-26T16:18:31.796Z,11.50
2018-01-26T16:21:02.963Z,11.50
2018-01-26T16:23:31.323Z,11.40
2018-01-26T16:25:59.574Z,11.40
2018-01-26T16:28:29.045Z,11.50
2018-01-26T16:30:57.293Z,11.50
2018-01-26T16:33:26.529Z,11.50
2018-01-26T16:35:54.777Z,11.50
2018-01-26T16:38:23.367Z,11.60
2018-01-26T16:40:52.170Z,11.60
2018-01-26T16:43:20.425Z,11.50
2018-01-26T16:45:48.962Z,11.50
2018-01-26T16:48:17.421Z,11.40
2018-01-26T16:50:45.669Z,11.30
2018-01-26T16:53:13.933Z,11.40
2018-01-26T16:55:42.185Z,11.40
2018-01-26T16:58:11.201Z,11.30
2018-01-26T17:00:39.649Z,11.40
2018-01-26T17:03:08.677Z,11.40
2018-01-26T17:05:37.261Z,11.40
2018-01-26T17:08:07.111Z,11.40
2018-01-26T17:10:35.346Z,11.50
2018-01-26T17:13:04.349Z,11.60
2018-01-26T17:15:32.861Z,11.60
2018-01-26T17:18:01.241Z,11.50
2018-01-26T17:20:30.653Z,11.40
2018-01-26T17:22:58.926Z,11.30
2018-01-26T17:25:27.196Z,11.30
2018-01-26T17:27:55.438Z,11.20
2018-01-26T17:30:24.553Z,11.10
2018-01-26T17:32:53.486Z,11.00
2018-01-26T17:35:21.762Z,11.00
2018-01-26T17:37:50.030Z,11.00
2018-01-26T17:40:18.301Z,11.00
2018-01-26T17:42:46.583Z,11.00
2018-01-26T17:45:14.946Z,11.00
2018-01-26T17:47:44.361Z,11.00
2018-01-26T17:50:12.608Z,11.00
2018-01-26T17:52:43.345Z,11.00
2018-01-26T17:55:11.597Z,11.00
2018-01-26T17:57:39.849Z,11.00
2018-01-26T18:00:08.117Z,11.00
2018-01-26T18:02:38.325Z,11.00
2018-01-26T18:05:06.638Z,10.90
2018-01-26T18:07:35.713Z,10.90
2018-01-26T18:10:04.729Z,11.00
2018-01-26T18:12:32.977Z,11.00
2018-01-26T18:15:01.538Z,11.00
2018-01-26T18:17:30.761Z,11.00
2018-01-26T18:19:59.009Z,11.00
2018-01-26T18:22:27.393Z,11.00
2018-01-26T18:24:55.954Z,11.10
2018-01-26T18:27:24.470Z,11.20
2018-01-26T18:29:54.246Z,11.20
2018-01-26T18:32:22.493Z,11.20
2018-01-26T18:34:50.740Z,11.10
2018-01-26T18:37:20.006Z,11.10
2018-01-26T18:39:48.317Z,11.10
2018-01-26T18:42:16.566Z,11.00
2018-01-26T18:44:44.837Z,10.90
2018-01-26T18:47:13.105Z,10.90
2018-01-26T18:49:41.706Z,10.80
2018-01-26T18:52:09.958Z,10.80
2018-01-26T18:54:38.277Z,10.80
2018-01-26T18:57:06.521Z,10.80
2018-01-26T18:59:35.136Z,10.80
2018-01-26T19:02:03.385Z,10.70
2018-01-26T19:04:31.794Z,10.70
2018-01-26T19:07:00.074Z,10.70
2018-01-26T19:09:28.590Z,10.70
2018-01-26T19:11:57.635Z,10.60
2018-01-26T19:14:25.898Z,10.60
2018-01-26T19:16:54.145Z,10.60
2018-01-26T19:19:22.553Z,10.60
2018-01-26T19:21:51.142Z,10.70
2018-01-26T19:24:19.442Z,10.70
2018-01-26T19:26:47.825Z,10.80
2018-01-26T19:29:16.105Z,10.80
2018-01-26T19:31:44.361Z,10.90
2018-01-26T19:34:12.615Z,10.90
2018-01-26T19:36:40.884Z,10.80
2018-01-26T19:39:10.523Z,10.80
2018-01-26T19:41:38.753Z,10.80
2018-01-26T19:44:07.506Z,10.70
2018-01-26T19:46:36.586Z,10.70
2018-01-26T19:49:04.817Z,10.70
2018-01-26T19:51:33.174Z,10.70
2018-01-26T19:54:02.232Z,10.60
2018-01-26T19:56:30.461Z,10.60
2018-01-26T19:58:58.749Z,10.50
2018-01-26T20:01:26.997Z,10.50
2018-01-26T20:04:04.736Z,10.50
2018-01-26T20:06:50.460Z,10.50
2018-01-26T20:09:24.441Z,10.50
2018-01-26T20:11:58.532Z,10.60
2018-01-26T20:14:26.818Z,10.70
2018-01-26T20:16:56.267Z,10.60
2018-01-26T20:19:24.648Z,10.70
2018-01-26T20:21:53.405Z,10.60
2018-01-26T20:24:21.657Z,10.50
2018-01-26T20:26:50.122Z,10.50
2018-01-26T20:29:19.174Z,10.60
2018-01-26T20:31:47.453Z,10.60
2018-01-26T20:34:15.723Z,10.50
2018-01-26T20:36:44.013Z,10.50
2018-01-26T20:39:13.062Z,10.40
2018-01-26T20:41:41.355Z,10.40
2018-01-26T20:44:10.052Z,10.50
2018-01-26T20:46:38.300Z,10.40
2018-01-26T20:49:06.613Z,10.50
2018-01-26T20:51:34.886Z,10.40
2018-01-26T20:54:03.133Z,10.30
2018-01-26T20:56:31.557Z,10.30
2018-01-26T20:58:59.838Z,10.40
2018-01-26T21:01:28.108Z,10.40
2018-01-26T21:03:56.372Z,10.40
2018-01-26T21:06:25.161Z,10.40
2018-01-26T21:08:53.494Z,10.40
2018-01-26T21:11:21.745Z,10.40
2018-01-26T21:13:50.407Z,10.40
2018-01-26T21:16:18.650Z,10.30
2018-01-26T21:18:46.902Z,10.40
2018-01-26T21:21:16.299Z,10.60
2018-01-26T21:23:45.313Z,10.70
2018-01-26T21:26:13.568Z,10.70
2018-01-26T21:28:42.424Z,10.70
2018-01-26T21:31:10.668Z,10.60
2018-01-26T21:33:38.922Z,10.50
2018-01-26T21:36:07.202Z,10.30
2018-01-26T21:38:36.223Z,10.30
2018-01-26T21:41:04.469Z,10.30
2018-01-26T21:43:32.749Z,10.30
2018-01-26T21:46:01.009Z,10.40
2018-01-26T21:48:30.033Z,10.60
2018-01-26T21:50:58.741Z,10.50
2018-01-26T21:53:27.045Z,10.50
2018-01-26T21:55:55.317Z,10.50
2018-01-26T21:58:23.594Z,10.40
2018-01-26T22:00:51.859Z,10.40
2018-01-26T22:03:20.115Z,10.40
2018-01-26T22:05:48.390Z,10.40
2018-01-26T22:08:16.649Z,10.40
2018-01-26T22:10:44.906Z,10.30
2018-01-26T22:13:13.537Z,10.30
2018-01-26T22:15:42.366Z,10.30
2018-01-26T22:18:10.621Z,10.30
2018-01-26T22:20:38.902Z,10.30
2018-01-26T22:23:07.190Z,10.20
2018-01-26T22:25:35.421Z,10.20
2018-01-26T22:28:03.699Z,10.10
2018-01-26T22:30:31.950Z,10.10
2018-01-26T22:33:00.966Z,9.90
2018-01-26T22:35:29.565Z,9.90
2018-01-26T22:37:57.817Z,9.90
2018-01-26T22:40:26.062Z,9.80
2018-01-26T22:42:55.101Z,10.00
2018-01-26T22:45:23.356Z,10.00
2018-01-26T22:47:51.614Z,10.00
2018-01-26T22:50:19.962Z,10.00
2018-01-26T22:52:48.339Z,10.10
2018-01-26T22:55:17.025Z,10.10
2018-01-26T22:57:45.697Z,10.10
2018-01-26T23:00:16.689Z,10.10
2018-01-26T23:02:45.717Z,10.00
2018-01-26T23:05:13.998Z,10.00
2018-01-26T23:07:42.253Z,10.00
2018-01-26T23:10:10.501Z,9.90
2018-01-26T23:12:38.777Z,9.80
2018-01-26T23:15:07.131Z,9.80
2018-01-26T23:17:35.965Z,9.80
2018-01-26T23:20:05.282Z,9.90
2018-01-26T23:22:33.521Z,9.80
2018-01-26T23:25:01.990Z,9.80
2018-01-26T23:27:30.265Z,9.90
2018-01-26T23:29:58.513Z,9.80
2018-01-26T23:32:26.757Z,9.70
2018-01-26T23:34:55.030Z,9.70
2018-01-26T23:37:23.273Z,9.70
2018-01-26T23:39:51.683Z,9.70
2018-01-26T23:42:20.115Z,9.70
2018-01-26T23:44:48.365Z,9.70
2018-01-26T23:47:16.617Z,9.80
2018-01-26T23:49:44.890Z,9.70
2018-01-26T23:52:13.922Z,9.70
2018-01-26T23:54:42.293Z,9.70
2018-01-26T23:57:10.565Z,9.80
2018-01-26T23:59:38.818Z,9.80
